Lavista, Nebraska
Current Conditions -  °F | °C
As of 7:55 AM on Saturday 25 Oct 2014 (Local Time) from KMLE Reporting Station
Haze Haze  
Wind Chill: 46°   Ceiling: 700
Heat Index: 46°   Visibility: 1mi
Dew Point: 45°   Wind: 0mph
Humidity: 96%   Direction: NA
Pressure: 30.08"   Gusts: NA
Location:  41.166°N, 96.0444°W
Report Text: KMLE 251255Z AUTO 00000KT 1SM BR VV007 08/07 A3008 RMK AO2 T00760070
Loading
Personal Weather Stations






























Interactive Weather Map
Tropical Storm Tracking
New forecast layout! Learn more

10-Day Weather Forecast

Advertisements
Track Severe Weather on mobile